• Join FlightAware (Why Join?)
  • Login
  • US Flag 
10:30PM EDT


 

Airport Tracker/Info


-or-


 

Live Flight TrackerFlight Track Log ✈ UAL3779 ✈ 20-Apr-2013 ✈ KATL - KORD

Flight Track Log - Related Links

Times and Time Zones

All times are in EDT time to prevent confusion due to time zone crossing. See the UAL3779 flight status page for this flight to view local times or setup timezone preferences in your user account.

Time Position Orientation Groundspeed Altitude Reporting Facility
EDT Latitude Longitude Course Direction KTS MPH feet Rate Location/Type
04:01PM 33.6500 -84.4667 296° West 166 191 2,900  Level Atlanta TRACON
04:02PM 33.6833 -84.5500 296° West 259 298 5,400 2,400 Climbing Atlanta TRACON
04:03PM 33.7333 -84.5833 331° Northwest 275 316 8,000 2,520 Climbing Atlanta TRACON
04:05PM 33.8892 -84.5844 360° North 289 333 13,000 2,520 Climbing Atlanta Center
04:06PM 33.9831 -84.5850 360° North 296 341 15,700 1,800 Climbing Atlanta Center
04:07PM 34.0644 -84.5906 357° North 301 346 16,600 1,380 Climbing Atlanta Center
04:08PM 34.1792 -84.5911 360° North 349 402 18,500 1,860 Climbing Atlanta Center
04:09PM 34.2836 -84.5969 357° North 370 426 20,400 1,800 Climbing Atlanta Center
04:10PM 34.3900 -84.6053 356° North 376 433 22,100 1,500 Climbing Atlanta Center
04:11PM 34.5006 -84.6136 356° North 387 445 23,500 1,440 Climbing Atlanta Center
04:12PM 34.6006 -84.6217 356° North 392 451 25,000 1,380 Climbing Atlanta Center
04:13PM 34.7111 -84.6325 355° North 398 458 26,300 1,320 Climbing Atlanta Center
04:14PM 34.8258 -84.6436 355° North 403 464 27,700 1,200 Climbing Atlanta Center
04:15PM 34.9406 -84.6519 357° North 408 470 28,800 1,020 Climbing Atlanta Center
04:16PM 35.0575 -84.6603 357° North 408 470 29,800 960 Climbing Atlanta Center
04:17PM 35.1764 -84.6739 355° North 414 476 30,800 780 Climbing Atlanta Center
04:18PM 35.2972 -84.6825 357° North 424 488 31,400 600 Climbing Atlanta Center
04:19PM 35.4183 -84.6936 356° North 429 494 32,000 300 Climbing Atlanta Center
04:20PM 35.5453 -84.7050 356° North 440 506 32,000 300 Level Atlanta Center
04:21PM 35.6747 -84.7136 357° North 446 513 32,700 840 Climbing Atlanta Center
04:22PM 35.8164 -84.7250 356° North 461 531 33,700 600 Climbing Atlanta Center
04:23PM 35.9500 -84.7364 356° North 461 531 34,000 360 Climbing Atlanta Center
04:25PM 36.1283 -84.7542 355° North 471 542 34,700 660 Climbing Indianapolis Center
04:26PM 36.2597 -84.7617 357° North 473 544 35,700 600 Climbing Indianapolis Center
04:27PM 36.3903 -84.7581 North 471 542 36,000 120 Climbing Indianapolis Center
04:28PM 36.5256 -84.7556 North 483 556 36,000  Level Indianapolis Center
04:29PM 36.6864 -84.7525 North 480 552 36,000  Level Indianapolis Center
04:30PM 36.8178 -84.7503 North 474 545 36,000  Level Indianapolis Center
04:31PM 36.9472 -84.7472 North 466 536 36,000  Level Indianapolis Center
04:32PM 37.0814 -84.7461 360° North 467 537 36,000  Level Indianapolis Center
04:33PM 37.2147 -84.7428 North 473 544 36,000  Level Indianapolis Center
04:34PM 37.3492 -84.7403 North 478 550 36,000  Level Indianapolis Center
04:35PM 37.4822 -84.7358 North 475 547 36,000  Level Indianapolis Center
04:36PM 37.6142 -84.7361 360° North 470 541 36,000  Level Indianapolis Center
04:37PM 37.7439 -84.7328 North 466 536 36,000  Level Indianapolis Center
04:38PM 37.8742 -84.7303 North 466 536 36,000  Level Indianapolis Center
04:39PM 38.0028 -84.7272 North 461 531 36,000  Level Indianapolis Center
04:40PM 38.1319 -84.7342 358° North 464 534 36,000  Level Indianapolis Center
04:41PM 38.2525 -84.7781 344° North 450 518 36,000  Level Indianapolis Center
04:42PM 38.3731 -84.8253 343° North 451 519 36,000  Level Indianapolis Center
04:43PM 38.5156 -84.8806 343° North 456 525 36,000  Level Indianapolis Center
04:44PM 38.6372 -84.9278 343° North 456 525 36,000 -300 Level Indianapolis Center
04:45PM 38.7411 -84.9697 343° North 452 520 35,400 -1,320 Descending Indianapolis Center
04:46PM 38.8625 -85.0175 343° North 454 522 33,300 -2,220 Descending Indianapolis Center
04:47PM 38.9969 -85.0694 343° North 423 487 30,900 -1,620 Descending Indianapolis Center
04:48PM 39.1067 -85.1133 343° North 414 476 30,000 -480 Descending Indianapolis Center
04:49PM 39.2189 -85.1586 343° North 417 480 30,000  Level Indianapolis Center
04:50PM 39.3322 -85.2039 343° North 420 483 30,000  Level Indianapolis Center
04:51PM 39.4447 -85.2497 343° North 419 482 30,000 -480 Level Indianapolis Center
04:52PM 39.5633 -85.2975 343° North 435 501 29,100 -1,200 Descending Indianapolis Center
04:53PM 39.6803 -85.3453 343° North 438 504 27,600 -1,500 Descending Indianapolis Center
04:54PM 39.7953 -85.3922 343° North 431 496 26,100 -840 Descending Indianapolis Center
04:55PM 39.9042 -85.4361 343° North 410 472 26,000 -60 Descending Indianapolis Center
04:56PM 40.0092 -85.4783 343° North 394 453 26,000 -300 Level Indianapolis Center
04:57PM 40.1150 -85.5217 343° North 394 453 25,500 -900 Descending Indianapolis Center
04:58PM 40.1658 -85.5417 343° North 396 456 24,800 -1,080 Descending Chicago Center
04:59PM 40.2686 -85.5867 342° North 391 450 24,000 -420 Descending Chicago Center
05:00PM 40.3683 -85.6281 342° North 381 438 24,000  Level Chicago Center
05:01PM 40.4681 -85.6733 341° North 379 436 24,000 -300 Level Chicago Center
05:02PM 40.5556 -85.7456 328° Northwest 379 436 23,400 -540 Descending Chicago Center
05:03PM 40.6319 -85.8250 322° Northwest 352 405 22,900 -540 Descending Chicago Center
05:04PM 40.7081 -85.9025 322° Northwest 345 397 22,400 -480 Descending Chicago Center
05:05PM 40.7861 -85.9842 322° Northwest 356 410 22,000 -240 Descending Chicago Center
05:06PM 40.8828 -86.0875 321° Northwest 369 425 22,000  Level Chicago Center
05:07PM 40.9614 -86.1689 322° Northwest 360 414 22,000  Level Chicago Center
05:08PM 41.0406 -86.2519 322° Northwest 361 415 22,000  Level Chicago Center
05:09PM 41.1175 -86.3344 321° Northwest 356 410 22,000  Level Chicago Center
05:10PM 41.1956 -86.4186 321° Northwest 359 413 22,000 -900 Level Chicago Center
05:11PM 41.2761 -86.5025 322° Northwest 368 423 20,200 -2,100 Descending Chicago Center
05:12PM 41.3528 -86.5867 321° Northwest 360 414 17,700 -1,860 Descending Chicago Center
05:13PM 41.4272 -86.6658 321° Northwest 345 397 16,500 -1,560 Descending Chicago Center
05:14PM 41.5022 -86.7464 321° Northwest 337 388 14,600 -2,100 Descending Chicago Center
05:15PM 41.6056 -86.7892 343° North 343 395 12,300 -1,320 Descending Chicago Center
05:16PM 41.6967 -86.7989 355° North 336 387 12,000 -480 Descending Chicago Center
05:17PM 41.7861 -86.8111 354° North 327 376 11,400 -480 Descending Chicago Center
05:18PM 41.8697 -86.8381 347° North 315 362 11,100 -540 Descending Chicago Center
05:19PM 41.9150 -86.9361 302° West 322 371 10,300 -540 Descending Chicago Center
05:20PM 41.9528 -87.0383 296° West 310 357 10,100 -180 Descending Chicago Center
05:21PM 41.9819 -87.1706 287° West 314 361 10,000 -60 Descending Chicago Center
05:22PM 41.9839 -87.2906 271° West 321 369 10,000 -120 Level Chicago Center
05:23PM 41.9839 -87.4008 270° West 307 353 9,800 -1,140 Descending Chicago Center
05:24PM 41.9833 -87.5000 270° West 253 291 7,800 -1,980 Descending Chicago TRACON
05:25PM 41.9833 -87.5833 270° West 244 281 5,900 -1,920 Descending Chicago TRACON
05:26PM 41.9833 -87.6667 270° West 207 238 4,000 -1,560 Descending Chicago TRACON
05:27PM 41.9833 -87.7500 270° West 209 241 2,800 -1,140 Descending Chicago TRACON
05:28PM 41.9833 -87.8167 270° West 189 217 1,800 -960 Descending Chicago TRACON
05:29PM 41.9833 -87.8667 270° West 129 148 900 -900 Descending Chicago TRACON